sensor_id;sensor_type;location;lat;lon;timestamp;pressure;altitude;pressure_sealevel;temperature;humidity
76156;BME280;64906;51.290;7.348;2023-02-11T00:00:42;99013.25;;;17.57;64.05
76156;BME280;64906;51.290;7.348;2023-02-11T00:03:08;99013.53;;;17.55;64.20
76156;BME280;64906;51.290;7.348;2023-02-11T00:05:34;98997.16;;;17.55;64.12
76156;BME280;64906;51.290;7.348;2023-02-11T00:08:00;98992.53;;;17.56;63.96
76156;BME280;64906;51.290;7.348;2023-02-11T00:10:28;98989.22;;;17.54;63.99
76156;BME280;64906;51.290;7.348;2023-02-11T00:12:54;98989.78;;;17.56;64.08
76156;BME280;64906;51.290;7.348;2023-02-11T00:15:20;98997.16;;;17.55;63.99
76156;BME280;64906;51.290;7.348;2023-02-11T00:17:46;98996.06;;;17.56;64.21
76156;BME280;64906;51.290;7.348;2023-02-11T00:20:12;98997.97;;;17.56;63.99
76156;BME280;64906;51.290;7.348;2023-02-11T00:22:38;98985.41;;;17.55;64.00
76156;BME280;64906;51.290;7.348;2023-02-11T00:25:04;98968.22;;;17.54;64.04
76156;BME280;64906;51.290;7.348;2023-02-11T00:27:30;98997.69;;;17.52;64.11
76156;BME280;64906;51.290;7.348;2023-02-11T00:29:56;98991.97;;;17.54;63.83
76156;BME280;64906;51.290;7.348;2023-02-11T00:32:22;99003.16;;;17.52;64.10
76156;BME280;64906;51.290;7.348;2023-02-11T00:34:51;99009.44;;;17.53;64.00
76156;BME280;64906;51.290;7.348;2023-02-11T00:37:17;99004.50;;;17.55;63.95
76156;BME280;64906;51.290;7.348;2023-02-11T00:39:44;99000.97;;;17.54;64.15
76156;BME280;64906;51.290;7.348;2023-02-11T00:42:13;98989.22;;;17.54;64.23
76156;BME280;64906;51.290;7.348;2023-02-11T00:44:39;98980.47;;;17.52;64.19
76156;BME280;64906;51.290;7.348;2023-02-11T00:47:05;98993.59;;;17.50;64.08
76156;BME280;64906;51.290;7.348;2023-02-11T00:49:31;98996.84;;;17.52;64.17
76156;BME280;64906;51.290;7.348;2023-02-11T00:51:57;98989.22;;;17.54;64.21
76156;BME280;64906;51.290;7.348;2023-02-11T00:54:23;98983.78;;;17.54;64.01
76156;BME280;64906;51.290;7.348;2023-02-11T00:56:50;98987.03;;;17.51;64.05
76156;BME280;64906;51.290;7.348;2023-02-11T00:59:15;98988.41;;;17.53;64.17
76156;BME280;64906;51.290;7.348;2023-02-11T01:01:41;98982.13;;;17.53;64.18
76156;BME280;64906;51.290;7.348;2023-02-11T01:04:07;98985.94;;;17.52;64.11
76156;BME280;64906;51.290;7.348;2023-02-11T01:06:33;98989.50;;;17.52;64.12
76156;BME280;64906;51.290;7.348;2023-02-11T01:08:59;98989.50;;;17.52;64.21
76156;BME280;64906;51.290;7.348;2023-02-11T01:11:25;99003.16;;;17.52;64.37
76156;BME280;64906;51.290;7.348;2023-02-11T01:13:50;98991.41;;;17.52;64.13
76156;BME280;64906;51.290;7.348;2023-02-11T01:16:18;98991.41;;;17.52;64.21
76156;BME280;64906;51.290;7.348;2023-02-11T01:18:44;98987.59;;;17.53;64.22
76156;BME280;64906;51.290;7.348;2023-02-11T01:21:11;98978.03;;;17.50;64.29
76156;BME280;64906;51.290;7.348;2023-02-11T01:23:36;98984.31;;;17.51;64.34
76156;BME280;64906;51.290;7.348;2023-02-11T01:26:02;98973.13;;;17.52;64.22
76156;BME280;64906;51.290;7.348;2023-02-11T01:28:29;98980.22;;;17.53;64.14
76156;BME280;64906;51.290;7.348;2023-02-11T01:30:56;98964.38;;;17.50;64.18
76156;BME280;64906;51.290;7.348;2023-02-11T01:33:22;98958.13;;;17.50;64.23
76156;BME280;64906;51.290;7.348;2023-02-11T01:35:48;98966.31;;;17.50;64.36
76156;BME280;64906;51.290;7.348;2023-02-11T01:38:24;98971.75;;;17.50;64.46
76156;BME280;64906;51.290;7.348;2023-02-11T01:40:53;98978.03;;;17.50;64.34
76156;BME280;64906;51.290;7.348;2023-02-11T01:43:21;98966.31;;;17.50;64.34
76156;BME280;64906;51.290;7.348;2023-02-11T01:48:17;98960.84;;;17.50;64.47
76156;BME280;64906;51.290;7.348;2023-02-11T01:50:48;98963.03;;;17.48;64.32
76156;BME280;64906;51.290;7.348;2023-02-11T01:53:15;98960.00;;;17.49;64.29
76156;BME280;64906;51.290;7.348;2023-02-11T01:56:02;98956.94;;;17.40;64.62
76156;BME280;64906;51.290;7.348;2023-02-11T01:58:49;98951.28;;;17.47;64.47
76156;BME280;64906;51.290;7.348;2023-02-11T02:01:20;98960.00;;;17.49;64.53
76156;BME280;64906;51.290;7.348;2023-02-11T02:03:51;98960.28;;;17.48;64.70
76156;BME280;64906;51.290;7.348;2023-02-11T02:06:25;98959.19;;;17.49;64.48
76156;BME280;64906;51.290;7.348;2023-02-11T02:09:03;98950.44;;;17.47;64.46
76156;BME280;64906;51.290;7.348;2023-02-11T02:11:30;98944.47;;;17.50;64.34
76156;BME280;64906;51.290;7.348;2023-02-11T02:13:56;98944.97;;;17.47;64.51
76156;BME280;64906;51.290;7.348;2023-02-11T02:16:25;98935.16;;;17.46;64.38
76156;BME280;64906;51.290;7.348;2023-02-11T02:19:39;98934.63;;;17.49;64.59
76156;BME280;64906;51.290;7.348;2023-02-11T02:28:44;98926.97;;;17.46;64.49
76156;BME280;64906;51.290;7.348;2023-02-11T02:33:54;98919.63;;;17.46;64.49
76156;BME280;64906;51.290;7.348;2023-02-11T02:36:36;98916.06;;;17.46;64.53
76156;BME280;64906;51.290;7.348;2023-02-11T02:39:10;98935.16;;;17.46;64.53
76156;BME280;64906;51.290;7.348;2023-02-11T02:41:38;98941.19;;;17.48;64.57
76156;BME280;64906;51.290;7.348;2023-02-11T02:44:06;98933.25;;;17.46;64.50
76156;BME280;64906;51.290;7.348;2023-02-11T02:46:33;98930.53;;;17.46;64.59
76156;BME280;64906;51.290;7.348;2023-02-11T02:49:00;98926.97;;;17.46;64.46
76156;BME280;64906;51.290;7.348;2023-02-11T03:02:30;98921.53;;;17.46;64.69
76156;BME280;64906;51.290;7.348;2023-02-11T03:05:28;98919.84;;;17.44;64.53
76156;BME280;64906;51.290;7.348;2023-02-11T03:10:21;98909.78;;;17.45;64.63
76156;BME280;64906;51.290;7.348;2023-02-11T03:12:50;98913.00;;;17.42;64.56
76156;BME280;64906;51.290;7.348;2023-02-11T03:15:20;98904.00;;;17.41;64.68
76156;BME280;64906;51.290;7.348;2023-02-11T03:17:49;98924.50;;;17.44;64.74
76156;BME280;64906;51.290;7.348;2023-02-11T03:20:18;98914.69;;;17.43;64.55
76156;BME280;64906;51.290;7.348;2023-02-11T03:22:49;98910.84;;;17.44;64.50
76156;BME280;64906;51.290;7.348;2023-02-11T03:25:18;98902.66;;;17.44;64.68
76156;BME280;64906;51.290;7.348;2023-02-11T03:27:51;98911.69;;;17.44;64.78
76156;BME280;64906;51.290;7.348;2023-02-11T03:30:25;98915.22;;;17.45;64.54
76156;BME280;64906;51.290;7.348;2023-02-11T03:33:04;98906.50;;;17.43;64.63
76156;BME280;64906;51.290;7.348;2023-02-11T03:35:40;98923.66;;;17.43;64.75
76156;BME280;64906;51.290;7.348;2023-02-11T03:38:15;98920.13;;;17.43;64.70
76156;BME280;64906;51.290;7.348;2023-02-11T03:40:43;98918.19;;;17.43;64.82
76156;BME280;64906;51.290;7.348;2023-02-11T03:43:30;98929.13;;;17.43;64.96
76156;BME280;64906;51.290;7.348;2023-02-11T03:45:57;98954.22;;;17.40;64.89
76156;BME280;64906;51.290;7.348;2023-02-11T03:48:36;98931.06;;;17.43;64.81
76156;BME280;64906;51.290;7.348;2023-02-11T03:51:07;98936.75;;;17.41;64.95
76156;BME280;64906;51.290;7.348;2023-02-11T03:53:34;98929.66;;;17.40;64.88
76156;BME280;64906;51.290;7.348;2023-02-11T03:56:04;98929.09;;;17.38;64.90
76156;BME280;64906;51.290;7.348;2023-02-11T03:58:31;98927.19;;;17.39;64.82
76156;BME280;64906;51.290;7.348;2023-02-11T04:00:57;98927.47;;;17.37;64.79
76156;BME280;64906;51.290;7.348;2023-02-11T04:03:22;98916.28;;;17.39;64.82
76156;BME280;64906;51.290;7.348;2023-02-11T04:05:48;98926.38;;;17.38;64.90
76156;BME280;64906;51.290;7.348;2023-02-11T04:08:14;98918.19;;;17.38;64.99
76156;BME280;64906;51.290;7.348;2023-02-11T04:10:40;98923.66;;;17.38;64.97
76156;BME280;64906;51.290;7.348;2023-02-11T04:13:06;98917.38;;;17.38;65.11
76156;BME280;64906;51.290;7.348;2023-02-11T04:15:35;98916.00;;;17.35;64.95
76156;BME280;64906;51.290;7.348;2023-02-11T04:18:00;98914.66;;;17.38;64.99
76156;BME280;64906;51.290;7.348;2023-02-11T04:20:28;98911.09;;;17.37;65.01
76156;BME280;64906;51.290;7.348;2023-02-11T04:22:55;98890.38;;;17.36;64.95
76156;BME280;64906;51.290;7.348;2023-02-11T04:25:21;98877.81;;;17.35;64.90
76156;BME280;64906;51.290;7.348;2023-02-11T04:27:47;98870.44;;;17.36;64.90
76156;BME280;64906;51.290;7.348;2023-02-11T04:30:13;98855.97;;;17.35;65.02
76156;BME280;64906;51.290;7.348;2023-02-11T04:32:39;98857.63;;;17.36;64.90
76156;BME280;64906;51.290;7.348;2023-02-11T04:35:05;98850.50;;;17.35;64.96
76156;BME280;64906;51.290;7.348;2023-02-11T04:37:31;98843.44;;;17.34;64.96
76156;BME280;64906;51.290;7.348;2023-02-11T04:39:57;98841.25;;;17.36;64.83
76156;BME280;64906;51.290;7.348;2023-02-11T04:42:23;98834.41;;;17.34;64.86
76156;BME280;64906;51.290;7.348;2023-02-11T04:44:49;98835.25;;;17.34;65.08
76156;BME280;64906;51.290;7.348;2023-02-11T04:47:15;98835.53;;;17.33;64.72
76156;BME280;64906;51.290;7.348;2023-02-11T04:49:41;98844.22;;;17.35;64.86
76156;BME280;64906;51.290;7.348;2023-02-11T04:52:07;98827.06;;;17.34;64.87
76156;BME280;64906;51.290;7.348;2023-02-11T04:54:33;98841.78;;;17.33;65.04
76156;BME280;64906;51.290;7.348;2023-02-11T04:57:02;98842.59;;;17.34;64.84
76156;BME280;64906;51.290;7.348;2023-02-11T04:59:28;98836.31;;;17.33;65.03
76156;BME280;64906;51.290;7.348;2023-02-11T05:01:57;98840.97;;;17.33;64.90
76156;BME280;64906;51.290;7.348;2023-02-11T05:04:23;98852.69;;;17.33;65.01
76156;BME280;64906;51.290;7.348;2023-02-11T05:06:49;98845.59;;;17.32;64.99
76156;BME280;64906;51.290;7.348;2023-02-11T05:09:15;98862.53;;;17.34;64.92
76156;BME280;64906;51.290;7.348;2023-02-11T05:11:41;98854.34;;;17.34;64.79
76156;BME280;64906;51.290;7.348;2023-02-11T05:14:07;98851.06;;;17.32;65.03
76156;BME280;64906;51.290;7.348;2023-02-11T05:16:33;98862.53;;;17.34;65.00
76156;BME280;64906;51.290;7.348;2023-02-11T05:18:59;98858.97;;;17.34;64.82
76156;BME280;64906;51.290;7.348;2023-02-11T05:21:25;98864.44;;;17.34;64.86
76156;BME280;64906;51.290;7.348;2023-02-11T05:23:51;98857.63;;;17.31;64.96
76156;BME280;64906;51.290;7.348;2023-02-11T05:26:18;98872.06;;;17.32;64.76
76156;BME280;64906;51.290;7.348;2023-02-11T05:28:45;98864.69;;;17.32;65.12
76156;BME280;64906;51.290;7.348;2023-02-11T05:31:11;98870.16;;;17.32;64.70
76156;BME280;64906;51.290;7.348;2023-02-11T05:33:39;98855.69;;;17.32;64.86
76156;BME280;64906;51.290;7.348;2023-02-11T05:36:08;98867.44;;;17.32;64.74
76156;BME280;64906;51.290;7.348;2023-02-11T05:38:35;98860.63;;;17.30;65.03
76156;BME280;64906;51.290;7.348;2023-02-11T05:41:03;98864.69;;;17.32;64.92
76156;BME280;64906;51.290;7.348;2023-02-11T05:43:29;98871.25;;;17.31;64.72
76156;BME280;64906;51.290;7.348;2023-02-11T05:45:55;98877.78;;;17.30;64.51
76156;BME280;64906;51.290;7.348;2023-02-11T05:48:21;98871.78;;;17.28;64.92
76156;BME280;64906;51.290;7.348;2023-02-11T05:50:48;98861.41;;;17.25;64.90
76156;BME280;64906;51.290;7.348;2023-02-11T05:53:14;98868.53;;;17.26;65.04
76156;BME280;64906;51.290;7.348;2023-02-11T05:55:40;98867.97;;;17.29;64.83
76156;BME280;64906;51.290;7.348;2023-02-11T05:58:06;98871.25;;;17.31;64.70
76156;BME280;64906;51.290;7.348;2023-02-11T06:00:33;98868.25;;;17.33;64.75
76156;BME280;64906;51.290;7.348;2023-02-11T06:02:59;98873.16;;;17.31;64.80
76156;BME280;64906;51.290;7.348;2023-02-11T06:05:25;98874.25;;;17.30;64.54
76156;BME280;64906;51.290;7.348;2023-02-11T06:07:51;98876.19;;;17.34;64.60
76156;BME280;64906;51.290;7.348;2023-02-11T06:10:17;98874.50;;;17.33;64.72
76156;BME280;64906;51.290;7.348;2023-02-11T06:12:43;98881.63;;;17.34;64.57
76156;BME280;64906;51.290;7.348;2023-02-11T06:15:09;98880.50;;;17.30;64.53
76156;BME280;64906;51.290;7.348;2023-02-11T06:17:35;98893.63;;;17.33;64.54
76156;BME280;64906;51.290;7.348;2023-02-11T06:20:05;98899.34;;;17.32;64.47
76156;BME280;64906;51.290;7.348;2023-02-11T06:22:33;98889.53;;;17.31;64.98
76156;BME280;64906;51.290;7.348;2023-02-11T06:25:08;98892.53;;;17.34;64.69
76156;BME280;64906;51.290;7.348;2023-02-11T06:27:35;98907.25;;;17.33;64.56
76156;BME280;64906;51.290;7.348;2023-02-11T06:30:02;98901.81;;;17.33;64.41
76156;BME280;64906;51.290;7.348;2023-02-11T06:32:28;98911.09;;;17.32;64.48
76156;BME280;64906;51.290;7.348;2023-02-11T06:34:54;98922.00;;;17.32;64.49
76156;BME280;64906;51.290;7.348;2023-02-11T06:37:20;98920.38;;;17.31;64.40
76156;BME280;64906;51.290;7.348;2023-02-11T06:39:46;98920.38;;;17.31;64.39
76156;BME280;64906;51.290;7.348;2023-02-11T06:42:12;98919.28;;;17.32;64.37
76156;BME280;64906;51.290;7.348;2023-02-11T06:44:38;98916.00;;;17.30;64.49
76156;BME280;64906;51.290;7.348;2023-02-11T06:47:04;98925.84;;;17.31;64.54
76156;BME280;64906;51.290;7.348;2023-02-11T06:49:30;98906.19;;;17.29;64.56
76156;BME280;64906;51.290;7.348;2023-02-11T06:51:56;98908.63;;;17.31;64.48
76156;BME280;64906;51.290;7.348;2023-02-11T06:54:22;98907.81;;;17.30;64.42
76156;BME280;64906;51.290;7.348;2023-02-11T06:56:48;98913.53;;;17.29;64.49
76156;BME280;64906;51.290;7.348;2023-02-11T06:59:18;98898.00;;;17.29;64.54
76156;BME280;64906;51.290;7.348;2023-02-11T07:01:47;98905.06;;;17.30;64.55
76156;BME280;64906;51.290;7.348;2023-02-11T07:04:13;98894.44;;;17.29;64.28
76156;BME280;64906;51.290;7.348;2023-02-11T07:06:41;98896.09;;;17.30;64.44
76156;BME280;64906;51.290;7.348;2023-02-11T07:09:07;98918.72;;;17.30;64.41
76156;BME280;64906;51.290;7.348;2023-02-11T07:11:33;98904.50;;;17.28;64.54
76156;BME280;64906;51.290;7.348;2023-02-11T07:14:04;98901.78;;;17.28;64.39
76156;BME280;64906;51.290;7.348;2023-02-11T07:16:31;98901.00;;;17.28;64.41
76156;BME280;64906;51.290;7.348;2023-02-11T07:18:57;98892.81;;;17.28;64.46
76156;BME280;64906;51.290;7.348;2023-02-11T07:21:23;98896.31;;;17.28;64.40
76156;BME280;64906;51.290;7.348;2023-02-11T07:23:49;98912.16;;;17.26;64.32
76156;BME280;64906;51.290;7.348;2023-02-11T07:26:17;98905.06;;;17.25;64.45
76156;BME280;64906;51.290;7.348;2023-02-11T07:28:44;98911.63;;;17.29;64.42
76156;BME280;64906;51.290;7.348;2023-02-11T07:31:15;98914.63;;;17.28;64.35
76156;BME280;64906;51.290;7.348;2023-02-11T07:33:43;98914.06;;;17.26;64.39
76156;BME280;64906;51.290;7.348;2023-02-11T07:36:14;98902.06;;;17.27;64.20
76156;BME280;64906;51.290;7.348;2023-02-11T07:38:40;98906.72;;;17.26;64.34
76156;BME280;64906;51.290;7.348;2023-02-11T07:41:09;98906.72;;;17.26;64.18
76156;BME280;64906;51.290;7.348;2023-02-11T07:43:37;98906.97;;;17.25;64.34
76156;BME280;64906;51.290;7.348;2023-02-11T07:46:04;98894.69;;;17.22;64.36
76156;BME280;64906;51.290;7.348;2023-02-11T07:48:31;98905.31;;;17.24;64.42
76156;BME280;64906;51.290;7.348;2023-02-11T07:51:13;98899.03;;;17.23;64.33
76156;BME280;64906;51.290;7.348;2023-02-11T07:53:39;98900.69;;;17.24;64.50
76156;BME280;64906;51.290;7.348;2023-02-11T07:56:06;98912.16;;;17.26;64.39
76156;BME280;64906;51.290;7.348;2023-02-11T07:58:33;98914.34;;;17.24;64.28
76156;BME280;64906;51.290;7.348;2023-02-11T08:01:04;98906.97;;;17.25;64.42
76156;BME280;64906;51.290;7.348;2023-02-11T08:03:31;98922.25;;;17.26;64.37
76156;BME280;64906;51.290;7.348;2023-02-11T08:05:57;98930.16;;;17.27;64.43
76156;BME280;64906;51.290;7.348;2023-02-11T08:08:26;98927.72;;;17.26;64.33
76156;BME280;64906;51.290;7.348;2023-02-11T08:10:52;98925.25;;;17.24;64.35
76156;BME280;64906;51.290;7.348;2023-02-11T08:13:19;98930.16;;;17.27;64.33
76156;BME280;64906;51.290;7.348;2023-02-11T08:15:45;98934.00;;;17.26;64.34
76156;BME280;64906;51.290;7.348;2023-02-11T08:18:11;98939.44;;;17.26;64.37
76156;BME280;64906;51.290;7.348;2023-02-11T08:20:37;98937.78;;;17.25;64.22
76156;BME280;64906;51.290;7.348;2023-02-11T08:23:05;98940.53;;;17.25;64.08
76156;BME280;64906;51.290;7.348;2023-02-11T08:25:32;98943.81;;;17.27;64.20
76156;BME280;64906;51.290;7.348;2023-02-11T08:27:58;98939.44;;;17.26;64.34
76156;BME280;64906;51.290;7.348;2023-02-11T08:30:26;98941.09;;;17.27;64.18
76156;BME280;64906;51.290;7.348;2023-02-11T08:32:52;98942.44;;;17.25;64.14
76156;BME280;64906;51.290;7.348;2023-02-11T08:35:17;98936.44;;;17.23;64.15
76156;BME280;64906;51.290;7.348;2023-02-11T08:37:43;98924.16;;;17.25;64.43
76156;BME280;64906;51.290;7.348;2023-02-11T08:40:13;98943.81;;;17.27;64.47
76156;BME280;64906;51.290;7.348;2023-02-11T08:42:39;98939.97;;;17.23;64.36
76156;BME280;64906;51.290;7.348;2023-02-11T08:45:06;98949.53;;;17.26;64.31
76156;BME280;64906;51.290;7.348;2023-02-11T08:47:32;98960.44;;;17.26;64.21
76156;BME280;64906;51.290;7.348;2023-02-11T08:49:58;98960.44;;;17.26;64.17
76156;BME280;64906;51.290;7.348;2023-02-11T08:52:24;98953.38;;;17.25;64.27
76156;BME280;64906;51.290;7.348;2023-02-11T08:54:50;98965.06;;;17.25;64.21
76156;BME280;64906;51.290;7.348;2023-02-11T08:57:15;98971.09;;;17.27;64.14
76156;BME280;64906;51.290;7.348;2023-02-11T08:59:41;98969.72;;;17.25;64.22
76156;BME280;64906;51.290;7.348;2023-02-11T09:02:11;98968.63;;;17.26;64.23
76156;BME280;64906;51.290;7.348;2023-02-11T09:04:37;98965.91;;;17.26;64.19
76156;BME280;64906;51.290;7.348;2023-02-11T09:07:03;99015.56;;;17.28;64.19
76156;BME280;64906;51.290;7.348;2023-02-11T09:09:30;98978.72;;;17.25;64.12
76156;BME280;64906;51.290;7.348;2023-02-11T09:11:56;98995.09;;;17.25;64.21
76156;BME280;64906;51.290;7.348;2023-02-11T09:14:23;98995.91;;;17.21;64.29
76156;BME280;64906;51.290;7.348;2023-02-11T09:16:50;99002.19;;;17.21;64.26
76156;BME280;64906;51.290;7.348;2023-02-11T09:19:16;99006.53;;;17.22;64.31
76156;BME280;64906;51.290;7.348;2023-02-11T09:21:43;99012.00;;;17.22;64.25
76156;BME280;64906;51.290;7.348;2023-02-11T09:24:09;99020.19;;;17.22;64.35
76156;BME280;64906;51.290;7.348;2023-02-11T09:26:41;99020.75;;;17.24;64.27
76156;BME280;64906;51.290;7.348;2023-02-11T09:29:08;99021.03;;;17.28;64.07
76156;BME280;64906;51.290;7.348;2023-02-11T09:31:34;99036.56;;;17.27;64.04
76156;BME280;64906;51.290;7.348;2023-02-11T09:34:03;99025.41;;;17.29;64.30
76156;BME280;64906;51.290;7.348;2023-02-11T09:36:44;99032.50;;;17.30;64.12
76156;BME280;64906;51.290;7.348;2023-02-11T09:39:17;99039.31;;;17.27;63.99
76156;BME280;64906;51.290;7.348;2023-02-11T09:44:20;99054.84;;;17.27;64.03
76156;BME280;64906;51.290;7.348;2023-02-11T09:46:53;99067.16;;;17.29;64.05
76156;BME280;64906;51.290;7.348;2023-02-11T09:49:24;99059.78;;;17.30;64.18
76156;BME280;64906;51.290;7.348;2023-02-11T09:52:05;99058.66;;;17.26;64.03
76156;BME280;64906;51.290;7.348;2023-02-11T09:54:44;99061.13;;;17.27;64.39
76156;BME280;64906;51.290;7.348;2023-02-11T09:57:14;99060.03;;;17.28;64.19
76156;BME280;64906;51.290;7.348;2023-02-11T09:59:42;99048.06;;;17.29;64.09
76156;BME280;64906;51.290;7.348;2023-02-11T10:02:59;99057.31;;;17.28;64.15
76156;BME280;64906;51.290;7.348;2023-02-11T10:05:24;99068.78;;;17.30;63.69
76156;BME280;64906;51.290;7.348;2023-02-11T10:08:08;99060.31;;;17.32;63.98
76156;BME280;64906;51.290;7.348;2023-02-11T10:10:46;99074.25;;;17.30;63.86
76156;BME280;64906;51.290;7.348;2023-02-11T10:18:50;99061.44;;;17.31;64.09
76156;BME280;64906;51.290;7.348;2023-02-11T10:21:26;99065.78;;;17.32;63.97
76156;BME280;64906;51.290;7.348;2023-02-11T10:23:55;99066.31;;;17.29;64.13
76156;BME280;64906;51.290;7.348;2023-02-11T10:26:22;99070.19;;;17.33;64.05
76156;BME280;64906;51.290;7.348;2023-02-11T10:28:52;99066.63;;;17.32;64.03
76156;BME280;64906;51.290;7.348;2023-02-11T10:31:26;99084.09;;;17.31;64.20
76156;BME280;64906;51.290;7.348;2023-02-11T10:34:19;99073.72;;;17.33;64.28
76156;BME280;64906;51.290;7.348;2023-02-11T10:36:53;99071.53;;;17.35;64.08
76156;BME280;64906;51.290;7.348;2023-02-11T10:39:21;99076.44;;;17.33;64.13
76156;BME280;64906;51.290;7.348;2023-02-11T10:41:56;99077.00;;;17.35;64.22
76156;BME280;64906;51.290;7.348;2023-02-11T10:44:31;99089.81;;;17.35;64.00
76156;BME280;64906;51.290;7.348;2023-02-11T10:47:01;99089.00;;;17.34;64.11
76156;BME280;64906;51.290;7.348;2023-02-11T10:49:43;99081.63;;;17.35;64.24
76156;BME280;64906;51.290;7.348;2023-02-11T10:52:25;99083.25;;;17.31;64.31
76156;BME280;64906;51.290;7.348;2023-02-11T10:57:33;99137.00;;;17.30;64.34
76156;BME280;64906;51.290;7.348;2023-02-11T11:00:33;99097.75;;;17.36;64.28
76156;BME280;64906;51.290;7.348;2023-02-11T11:03:22;99093.09;;;17.37;64.01
76156;BME280;64906;51.290;7.348;2023-02-11T11:05:52;99103.75;;;17.38;63.84
76156;BME280;64906;51.290;7.348;2023-02-11T11:08:19;99096.97;;;17.41;63.95
76156;BME280;64906;51.290;7.348;2023-02-11T11:10:48;99093.13;;;17.42;63.85
76156;BME280;64906;51.290;7.348;2023-02-11T11:13:40;99091.22;;;17.42;64.03
76156;BME280;64906;51.290;7.348;2023-02-11T11:16:15;99098.09;;;17.45;64.06
76156;BME280;64906;51.290;7.348;2023-02-11T11:18:44;99094.28;;;17.46;63.95
76156;BME280;64906;51.290;7.348;2023-02-11T11:21:18;99103.28;;;17.47;63.75
76156;BME280;64906;51.290;7.348;2023-02-11T11:26:18;99099.22;;;17.49;63.81
76156;BME280;64906;51.290;7.348;2023-02-11T11:28:52;99094.59;;;17.50;63.76
76156;BME280;64906;51.290;7.348;2023-02-11T11:31:29;99088.03;;;17.51;63.86
76156;BME280;64906;51.290;7.348;2023-02-11T11:33:58;99088.03;;;17.51;63.92
76156;BME280;64906;51.290;7.348;2023-02-11T11:36:36;99085.88;;;17.53;63.72
76156;BME280;64906;51.290;7.348;2023-02-11T11:39:19;99085.88;;;17.53;63.76
76156;BME280;64906;51.290;7.348;2023-02-11T11:42:00;99071.13;;;17.54;63.60
76156;BME280;64906;51.290;7.348;2023-02-11T11:44:32;99075.47;;;17.55;63.69
76156;BME280;64906;51.290;7.348;2023-02-11T11:49:43;99111.53;;;17.57;63.52
76156;BME280;64906;51.290;7.348;2023-02-11T11:52:59;99112.34;;;17.57;63.46
76156;BME280;64906;51.290;7.348;2023-02-11T11:55:37;99124.91;;;17.58;63.09
76156;BME280;64906;51.290;7.348;2023-02-11T11:58:04;99095.72;;;17.59;63.32
76156;BME280;64906;51.290;7.348;2023-02-11T12:22:17;99067.34;;;17.65;62.09
76156;BME280;64906;51.290;7.348;2023-02-11T12:24:59;99067.34;;;17.65;61.91
76156;BME280;64906;51.290;7.348;2023-02-11T12:38:21;99033.78;;;17.69;62.25
76156;BME280;64906;51.290;7.348;2023-02-11T12:41:03;99038.97;;;17.71;62.17
76156;BME280;64906;51.290;7.348;2023-02-11T12:43:39;99042.50;;;17.71;62.01
76156;BME280;64906;51.290;7.348;2023-02-11T12:51:58;99030.53;;;17.72;62.33
76156;BME280;64906;51.290;7.348;2023-02-11T12:54:41;99028.59;;;17.73;62.28
76156;BME280;64906;51.290;7.348;2023-02-11T12:57:35;99034.03;;;17.73;62.30
76156;BME280;64906;51.290;7.348;2023-02-11T13:03:30;99023.41;;;17.71;62.32
76156;BME280;64906;51.290;7.348;2023-02-11T13:06:04;99035.97;;;17.72;62.43
76156;BME280;64906;51.290;7.348;2023-02-11T13:08:35;99029.69;;;17.72;62.53
76156;BME280;64906;51.290;7.348;2023-02-11T13:11:16;99025.06;;;17.72;62.35
76156;BME280;64906;51.290;7.348;2023-02-11T13:30:12;99001.56;;;17.71;62.52
76156;BME280;64906;51.290;7.348;2023-02-11T13:35:41;98989.84;;;17.71;62.62
76156;BME280;64906;51.290;7.348;2023-02-11T13:38:20;98999.09;;;17.70;62.80
76156;BME280;64906;51.290;7.348;2023-02-11T13:41:35;98993.09;;;17.68;62.76
76156;BME280;64906;51.290;7.348;2023-02-11T13:46:53;98990.91;;;17.70;62.67
76156;BME280;64906;51.290;7.348;2023-02-11T13:49:23;98982.72;;;17.70;62.67
76156;BME280;64906;51.290;7.348;2023-02-11T13:51:51;98977.81;;;17.72;62.81
76156;BME280;64906;51.290;7.348;2023-02-11T13:54:25;98977.81;;;17.72;62.63
76156;BME280;64906;51.290;7.348;2023-02-11T13:59:46;98981.38;;;17.72;63.09
76156;BME280;64906;51.290;7.348;2023-02-11T14:02:28;98981.09;;;17.74;62.96
76156;BME280;64906;51.290;7.348;2023-02-11T14:05:23;98981.09;;;17.74;62.84
76156;BME280;64906;51.290;7.348;2023-02-11T14:08:14;98984.38;;;17.76;62.96
76156;BME280;64906;51.290;7.348;2023-02-11T14:11:01;98987.13;;;17.76;62.71
76156;BME280;64906;51.290;7.348;2023-02-11T14:13:31;98995.03;;;17.77;62.69
76156;BME280;64906;51.290;7.348;2023-02-11T14:16:13;98974.00;;;17.78;62.72
76156;BME280;64906;51.290;7.348;2023-02-11T14:21:13;98989.88;;;17.81;62.81
76156;BME280;64906;51.290;7.348;2023-02-11T14:23:41;98993.13;;;17.83;62.90
76156;BME280;64906;51.290;7.348;2023-02-11T14:28:50;98991.75;;;17.80;62.69
76156;BME280;64906;51.290;7.348;2023-02-11T14:31:21;98986.03;;;17.82;62.66
76156;BME280;64906;51.290;7.348;2023-02-11T14:36:59;98983.28;;;17.82;62.79
76156;BME280;64906;51.290;7.348;2023-02-11T14:40:14;98974.56;;;17.85;62.84
76156;BME280;64906;51.290;7.348;2023-02-11T14:42:42;98980.56;;;17.82;62.71
76156;BME280;64906;51.290;7.348;2023-02-11T14:45:12;98979.47;;;17.83;62.63
76156;BME280;64906;51.290;7.348;2023-02-11T14:47:50;98968.28;;;17.84;62.41
76156;BME280;64906;51.290;7.348;2023-02-11T14:50:25;98960.34;;;17.83;62.99
76156;BME280;64906;51.290;7.348;2023-02-11T14:52:52;98964.75;;;17.84;62.74
76156;BME280;64906;51.290;7.348;2023-02-11T14:55:26;98965.03;;;17.87;62.92
76156;BME280;64906;51.290;7.348;2023-02-11T15:01:02;98961.19;;;17.88;62.73
76156;BME280;64906;51.290;7.348;2023-02-11T15:03:41;98970.22;;;17.89;62.71
76156;BME280;64906;51.290;7.348;2023-02-11T15:06:24;98971.00;;;17.89;62.58
76156;BME280;64906;51.290;7.348;2023-02-11T15:08:55;98970.72;;;17.91;62.61
76156;BME280;64906;51.290;7.348;2023-02-11T15:11:24;98965.28;;;17.91;62.54
76156;BME280;64906;51.290;7.348;2023-02-11T15:13:51;98966.38;;;17.90;62.58
76156;BME280;64906;51.290;7.348;2023-02-11T15:16:26;98967.72;;;17.92;62.75